Details From MROC - San Jose Juan Santamaria Intl
To MHTG - Tegucigalpa Toncontin Intl
Flight Number -
Tags generated
Created
Modified
Stats Distance 305 nm / 565 km
Max Altitude 34,000 ft / 10,363 m
Waypoints 6
Social Downloads 15
Likes 0
Share VATSIM

Download

Looking for another format? Having issues loading an existing format? Contact us
Advertisement - Login to hide

Notes

Basic altitude profile: - Ascent Rate: 2500ft/min - Ascent Speed: 250kts - Cruise Altitude: 35000ft - Cruise Speed: 420kts - Descent Rate: 1500ft/min - Descent Speed: 250kts

Route

MROC ULAPO UA502 BERTA MHTG

ID Type Via Altitude (ft/m) Position (lat/lon) Dist (leg/tot) Name
O MROC APT - 0 / 0 9.99393 / -84.20888 - / 0 nm San Jose Juan Santamaria Intl
ULAPO FIX - 30,000 / 9,144 11.02833 / -85.17167 84 / 84 nm
LISPA FIX UA502 (AWY-HI) 34,000 / 10,363 11.39000 / -85.49750 28 / 113 nm
MGA VOR UA502 (AWY-HI) 28,100 / 8,565 12.13972 / -86.17422 60 / 173 nm MANAGUA VOR-DME
BERTA FIX UA502 (AWY-HI) 18,500 / 5,639 12.95000 / -86.77333 60 / 233 nm
O MHTG APT - 0 / 0 14.06088 / -87.21720 71 / 304 nm Tegucigalpa Toncontin Intl

Altitude Profile

Advertisement - Login to hide

Weather


0- 5 10 15 20 25 30 35+ Temperature / °C

Clouds and Precipitation
Forecast for 2020-01-17 18:00 UTC. Updated 3 hours ago

Ground ~20,000 ft ~40,000 ft Winds

MROC

Details ICAO MROC (SJO)
Name Juan Santamaria Intl
Region Costa Rica
Timezone America/Costa_Rica (UTC-6.0)
Stats Elevation 3,020 ft / 920 m (AMSL)
Location 9.993870° -84.208900°
Runways 1
Magnetic Variation 2.023° W

METAR

MROC 171800Z 09016KT 060V130 9999 FEW045 SCT100 28/17 A2994 NOSIG

Decode

TAF

MROC 171706Z 1718/1818 10016KT 9999 FEW040 TX29/1719Z TN21/1811Z TEMPO 1718/1806 10019G30KT

Decode

Departure Runways

ID Width Length Bearing (true/mag) Surface Threshold Overrun Markings Lighting
07 148 ft / 45 m 9,888 ft / 3,014 m 69.16° / 71.18° ASPHALT 0 ft / 0 m 190 ft / 58 m PREC-APP EDGE THRESHOLD MALS REIL-OMNI
25 148 ft / 45 m 9,888 ft / 3,014 m 249.17° / 251.19° ASPHALT 1,614 ft / 492 m 0 ft / 0 m PREC-APP EDGE THRESHOLD REIL-OMNI

MHTG

Details ICAO MHTG (TGU)
Name Toncontin Intl
Region Honduras
Timezone America/Tegucigalpa (UTC-6.0)
Stats Elevation 3,307 ft / 1,008 m (AMSL)
Location 14.060300° -87.217400°
Runways 1
Magnetic Variation 0.954° W

METAR

MHTG 171800Z 06012KT 7000 VCSH BKN026 24/16 Q1020 A3012 NOSIG

Decode

TAF

TAF MHTG 171600Z 1718/1818 04008G18KT 7000 VCSH FEW010 BKN026 TX25/1720Z TN16/1812Z BECMG 1802/1804 36007KT 9999 NSW FEW012 BKN024 BECMG 1810/1812 6000 VCSH FEW007 BKN020 BECMG 1815/1817 06010KT 9999 NSW FEW012 BKN028

Decode

Destination Runways

ID Width Length Bearing (true/mag) Surface Threshold Overrun Markings Lighting
02 151 ft / 46 m 6,637 ft / 2,023 m 18.85° / 19.80° ASPHALT 1,161 ft / 354 m 187 ft / 57 m APP EDGE THRESHOLD REIL-OMNI
20 151 ft / 46 m 6,637 ft / 2,023 m 198.85° / 199.80° ASPHALT 0 ft / 0 m 239 ft / 73 m APP EDGE THRESHOLD REIL-OMNI

Popular Alternatives